Time;durP1;ratioP1;P1;durP2;ratioP2;P2;SDS_P1;SDS_P2;PMS_P1;PMS_P2;Temp;Humidity;BMP_temperature;BMP_pressure;BME280_temperature;BME280_humidity;BME280_pressure;Samples;Min_cycle;Max_cycle;Signal;HPM_P1;HPM_P2
2022/04/12 00:00:28;;;;;;;2.72;0.90;;;;;;;;;;5068654;28;20491;-65
2022/04/12 00:02:55;;;;;;;3.28;0.90;;;;;;;;;;5068611;28;20109;-65
2022/04/12 00:05:21;;;;;;;2.33;0.93;;;;;;;;;;5067677;28;20570;-65
2022/04/12 00:07:47;;;;;;;3.08;1.27;;;;;;;;;;5068023;28;20465;-64
2022/04/12 00:10:13;;;;;;;2.22;0.85;;;;;;;;;;5067127;28;20044;-65
2022/04/12 00:12:40;;;;;;;1.55;0.80;;;;;;;;;;5068283;28;20058;-64
2022/04/12 00:15:07;;;;;;;1.77;0.70;;;;;;;;;;5068023;28;20059;-66
2022/04/12 00:20:18;;;;;;;3.35;0.90;;;;;;;;;;5068329;28;20507;-65
2022/04/12 00:22:45;;;;;;;4.55;1.55;;;;;;;;;;5068323;28;20052;-65
2022/04/12 00:25:11;;;;;;;1.95;0.80;;;;;;;;;;5068132;28;20508;-65
2022/04/12 00:27:37;;;;;;;1.70;0.90;;;;;;;;;;5068045;28;20036;-65
2022/04/12 00:30:05;;;;;;;2.17;0.80;;;;;;;;;;5067807;28;20085;-65
2022/04/12 00:32:31;;;;;;;1.95;0.90;;;;;;;;;;5068076;28;20044;-65
2022/04/12 00:34:57;;;;;;;15.32;1.77;;;;;;;;;;5067708;28;20404;-64
2022/04/12 00:37:23;;;;;;;5.90;1.13;;;;;;;;;;5067819;28;20048;-64
2022/04/12 00:39:49;;;;;;;9.48;1.05;;;;;;;;;;5067952;28;20045;-65
2022/04/12 00:42:15;;;;;;;3.22;0.90;;;;;;;;;;5067302;28;20062;-65
2022/04/12 00:44:41;;;;;;;3.63;1.02;;;;;;;;;;5067969;28;20048;-65
2022/04/12 00:47:07;;;;;;;1.90;0.95;;;;;;;;;;5068012;28;20048;-65
2022/04/12 00:49:33;;;;;;;2.53;1.10;;;;;;;;;;5068157;28;20045;-65
2022/04/12 00:52:00;;;;;;;2.38;0.80;;;;;;;;;;5049879;28;20056;-64
2022/04/12 00:54:27;;;;;;;1.60;0.73;;;;;;;;;;5067030;28;20047;-65
2022/04/12 00:56:53;;;;;;;4.40;1.08;;;;;;;;;;5067346;28;20052;-65
2022/04/12 00:59:20;;;;;;;4.07;1.42;;;;;;;;;;5068084;28;20520;-65
2022/04/12 01:01:46;;;;;;;3.85;1.55;;;;;;;;;;5068028;28;20086;-65
2022/04/12 01:04:12;;;;;;;1.95;0.95;;;;;;;;;;5067755;28;20053;-65
2022/04/12 01:06:38;;;;;;;2.95;0.70;;;;;;;;;;5068047;28;20153;-65
2022/04/12 01:09:05;;;;;;;2.83;0.90;;;;;;;;;;5070056;28;20050;-65
2022/04/12 01:11:35;;;;;;;3.28;1.20;;;;;;;;;;5071729;28;20045;-65
2022/04/12 01:14:00;;;;;;;;;;;;;;;;;;5070997;28;20041;-65
2022/04/12 01:16:27;;;;;;;2.33;0.90;;;;;;;;;;5071737;28;19920;-65
2022/04/12 01:18:53;;;;;;;4.60;1.10;;;;;;;;;;5071461;28;20387;-65
2022/04/12 01:21:20;;;;;;;4.15;1.00;;;;;;;;;;5071473;28;20066;-65
2022/04/12 01:23:52;;;;;;;1.30;0.80;;;;;;;;;;5071283;28;20127;-65
2022/04/12 01:26:18;;;;;;;3.08;1.02;;;;;;;;;;5053418;28;20045;-65
2022/04/12 01:28:44;;;;;;;2.85;1.05;;;;;;;;;;5071440;28;20036;-65
2022/04/12 01:31:11;;;;;;;1.48;0.85;;;;;;;;;;5071294;28;20090;-66
2022/04/12 01:33:37;;;;;;;2.53;1.08;;;;;;;;;;5069346;28;20059;-65
2022/04/12 01:36:03;;;;;;;3.00;1.17;;;;;;;;;;5070959;28;20538;-65
2022/04/12 01:38:29;;;;;;;4.70;1.00;;;;;;;;;;5053218;28;20044;-65
2022/04/12 01:40:55;;;;;;;5.20;1.30;;;;;;;;;;5071149;28;20102;-66
2022/04/12 01:43:21;;;;;;;3.10;1.00;;;;;;;;;;5070763;28;20040;-66
2022/04/12 01:45:47;;;;;;;2.92;1.00;;;;;;;;;;5070916;28;20127;-64
2022/04/12 01:48:13;;;;;;;2.25;1.00;;;;;;;;;;5070682;28;20055;-65
2022/04/12 01:50:39;;;;;;;5.65;1.02;;;;;;;;;;5070970;28;20083;-65
2022/04/12 01:53:05;;;;;;;3.38;1.10;;;;;;;;;;5070590;28;20037;-65
2022/04/12 01:55:31;;;;;;;1.45;0.85;;;;;;;;;;5071010;28;20040;-65
2022/04/12 01:57:57;;;;;;;3.55;1.27;;;;;;;;;;5070164;28;20040;-65
2022/04/12 02:00:23;;;;;;;1.63;0.82;;;;;;;;;;5070873;28;20487;-65
2022/04/12 02:02:49;;;;;;;1.95;0.95;;;;;;;;;;5070042;28;20048;-65
2022/04/12 02:05:15;;;;;;;4.88;1.00;;;;;;;;;;5069791;28;20052;-65
2022/04/12 02:07:43;;;;;;;2.95;1.25;;;;;;;;;;5070365;28;20044;-66
2022/04/12 02:10:10;;;;;;;2.15;0.95;;;;;;;;;;5070693;28;20094;-65
2022/04/12 02:12:36;;;;;;;2.15;1.10;;;;;;;;;;5070267;28;20589;-66
2022/04/12 02:15:02;;;;;;;3.42;1.05;;;;;;;;;;5069979;28;20121;-65
2022/04/12 02:17:28;;;;;;;3.45;1.30;;;;;;;;;;5069965;28;20514;-65
2022/04/12 02:19:54;;;;;;;2.40;1.10;;;;;;;;;;5070313;28;20044;-66
2022/04/12 02:22:20;;;;;;;2.88;0.90;;;;;;;;;;5069979;28;20056;-66
2022/04/12 02:24:46;;;;;;;2.17;1.02;;;;;;;;;;5070367;28;20527;-66
2022/04/12 02:27:13;;;;;;;1.58;0.98;;;;;;;;;;5070395;28;20041;-66
2022/04/12 02:29:39;;;;;;;3.30;1.20;;;;;;;;;;5069826;28;20270;-66
2022/04/12 02:32:06;;;;;;;2.60;1.10;;;;;;;;;;5069854;28;20044;-66
2022/04/12 02:34:32;;;;;;;3.05;1.33;;;;;;;;;;5051806;28;20056;-66
2022/04/12 02:36:59;;;;;;;2.20;1.10;;;;;;;;;;5068704;28;20045;-66
2022/04/12 02:39:25;;;;;;;2.25;1.30;;;;;;;;;;5069665;28;20403;-66
2022/04/12 02:41:51;;;;;;;1.48;0.90;;;;;;;;;;5068937;28;20055;-66
2022/04/12 02:44:17;;;;;;;2.40;1.00;;;;;;;;;;5068911;28;20047;-66
2022/04/12 02:46:43;;;;;;;2.47;1.15;;;;;;;;;;5051260;28;20127;-66
2022/04/12 02:49:09;;;;;;;1.67;0.90;;;;;;;;;;5068670;28;20052;-66
2022/04/12 02:51:36;;;;;;;1.65;1.05;;;;;;;;;;5069204;28;20620;-64
2022/04/12 02:54:02;;;;;;;1.92;1.10;;;;;;;;;;5051054;28;20162;-65
2022/04/12 02:56:28;;;;;;;3.03;1.40;;;;;;;;;;5068657;28;20131;-66
2022/04/12 02:58:54;;;;;;;2.40;0.98;;;;;;;;;;5051343;28;20079;-66
2022/04/12 03:01:20;;;;;;;2.35;1.15;;;;;;;;;;5068987;28;20043;-67
2022/04/12 03:03:46;;;;;;;3.22;1.08;;;;;;;;;;5068455;28;20090;-65
2022/04/12 03:06:12;;;;;;;1.92;1.20;;;;;;;;;;5068451;28;20395;-65
2022/04/12 03:08:38;;;;;;;4.25;1.38;;;;;;;;;;5068260;28;20434;-65
2022/04/12 03:11:04;;;;;;;4.13;1.00;;;;;;;;;;5068529;28;20529;-66
2022/04/12 03:13:30;;;;;;;3.55;1.13;;;;;;;;;;5050912;28;20055;-65
2022/04/12 03:15:56;;;;;;;2.38;1.40;;;;;;;;;;5068277;28;20041;-65
2022/04/12 03:18:22;;;;;;;2.10;1.25;;;;;;;;;;5068184;28;20041;-65
2022/04/12 03:20:51;;;;;;;5.97;1.48;;;;;;;;;;5068516;28;20129;-66
2022/04/12 03:23:17;;;;;;;5.93;2.00;;;;;;;;;;5067907;28;20048;-66
2022/04/12 03:25:43;;;;;;;4.47;2.38;;;;;;;;;;5068247;28;20119;-66
2022/04/12 03:28:09;;;;;;;2.92;1.20;;;;;;;;;;5068043;28;20059;-66
2022/04/12 03:30:35;;;;;;;3.42;1.77;;;;;;;;;;5067085;28;20041;-66
2022/04/12 03:33:01;;;;;;;4.63;1.40;;;;;;;;;;5067602;28;20090;-66
2022/04/12 03:35:28;;;;;;;3.88;1.10;;;;;;;;;;5049741;28;20056;-66
2022/04/12 03:37:59;;;;;;;2.80;1.20;;;;;;;;;;5068147;28;20048;-66
2022/04/12 03:40:27;;;;;;;4.63;1.60;;;;;;;;;;5067941;28;20119;-66
2022/04/12 03:42:53;;;;;;;2.30;1.23;;;;;;;;;;5068049;28;20147;-66
2022/04/12 03:45:19;;;;;;;4.15;1.30;;;;;;;;;;5067595;28;20044;-65
2022/04/12 03:47:45;;;;;;;4.13;1.60;;;;;;;;;;5067746;28;20041;-65
2022/04/12 03:50:11;;;;;;;3.60;1.30;;;;;;;;;;5068469;28;20041;-64
2022/04/12 03:52:37;;;;;;;1.95;1.23;;;;;;;;;;5068241;28;20052;-66
2022/04/12 03:55:04;;;;;;;6.65;1.40;;;;;;;;;;5068369;28;20044;-65
2022/04/12 03:57:32;;;;;;;2.30;1.20;;;;;;;;;;5050854;28;20052;-65
2022/04/12 03:59:58;;;;;;;4.25;1.55;;;;;;;;;;5068422;28;20049;-66
2022/04/12 04:02:24;;;;;;;4.32;1.40;;;;;;;;;;5068911;28;20044;-65
2022/04/12 04:04:50;;;;;;;2.35;1.30;;;;;;;;;;5067567;28;20098;-65
2022/04/12 04:07:16;;;;;;;3.03;1.58;;;;;;;;;;5068515;28;20098;-65
2022/04/12 04:09:43;;;;;;;2.55;1.40;;;;;;;;;;5068725;28;20487;-65
2022/04/12 04:12:09;;;;;;;5.60;1.83;;;;;;;;;;5068094;28;20048;-65
2022/04/12 04:14:35;;;;;;;4.78;1.40;;;;;;;;;;5068490;28;20140;-66
2022/04/12 04:17:03;;;;;;;2.95;1.42;;;;;;;;;;5067971;28;20143;-66
2022/04/12 04:19:29;;;;;;;4.43;1.67;;;;;;;;;;5067622;28;20132;-65
2022/04/12 04:21:55;;;;;;;3.35;1.50;;;;;;;;;;5068082;28;20414;-66
2022/04/12 04:24:22;;;;;;;3.47;1.50;;;;;;;;;;5067789;28;20059;-66
2022/04/12 04:26:54;;;;;;;2.83;1.40;;;;;;;;;;5067349;28;20040;-66
2022/04/12 04:29:20;;;;;;;5.47;1.63;;;;;;;;;;5067946;28;20106;-65
2022/04/12 04:31:48;;;;;;;3.97;1.40;;;;;;;;;;5067380;28;20037;-65
2022/04/12 04:34:14;;;;;;;2.20;1.30;;;;;;;;;;5067728;28;20510;-65
2022/04/12 04:36:40;;;;;;;4.18;1.73;;;;;;;;;;5068346;28;20148;-66
2022/04/12 04:39:06;;;;;;;4.00;1.50;;;;;;;;;;5067454;28;20451;-65
2022/04/12 04:41:32;;;;;;;4.15;1.65;;;;;;;;;;5068376;28;20090;-65
2022/04/12 04:43:58;;;;;;;3.30;1.33;;;;;;;;;;5069886;28;20332;-65
2022/04/12 04:46:24;;;;;;;2.88;1.40;;;;;;;;;;5053812;28;20131;-65
2022/04/12 04:48:50;;;;;;;6.25;1.40;;;;;;;;;;5071155;28;20098;-65
2022/04/12 04:51:16;;;;;;;2.85;1.73;;;;;;;;;;5072230;28;20049;-65
2022/04/12 04:53:45;;;;;;;2.17;1.30;;;;;;;;;;5071764;28;20045;-65
2022/04/12 04:56:11;;;;;;;4.25;1.13;;;;;;;;;;5071886;28;20047;-66
2022/04/12 04:58:37;;;;;;;4.03;1.50;;;;;;;;;;5071181;28;20045;-65
2022/04/12 05:01:03;;;;;;;3.33;1.42;;;;;;;;;;5071168;28;20040;-65
2022/04/12 05:03:29;;;;;;;2.90;1.48;;;;;;;;;;5071707;28;20040;-65
2022/04/12 05:05:55;;;;;;;5.95;1.70;;;;;;;;;;5070934;28;20122;-66
2022/04/12 05:08:21;;;;;;;3.20;1.45;;;;;;;;;;5070545;28;20048;-65
2022/04/12 05:10:47;;;;;;;3.42;1.50;;;;;;;;;;5065706;28;20388;-65
2022/04/12 05:13:13;;;;;;;4.07;1.83;;;;;;;;;;5069623;28;20126;-64
2022/04/12 05:15:39;;;;;;;2.15;1.25;;;;;;;;;;5070180;28;20036;-65
2022/04/12 05:18:05;;;;;;;2.45;1.42;;;;;;;;;;5070559;28;20044;-65
2022/04/12 05:20:32;;;;;;;3.55;1.48;;;;;;;;;;5070483;28;20451;-65
2022/04/12 05:22:58;;;;;;;5.25;2.95;;;;;;;;;;5070477;28;20522;-65
2022/04/12 05:25:24;;;;;;;2.95;1.50;;;;;;;;;;5070963;28;20056;-65
2022/04/12 05:27:50;;;;;;;6.03;1.90;;;;;;;;;;5070925;28;20137;-65
2022/04/12 05:30:16;;;;;;;3.95;1.77;;;;;;;;;;5069900;28;20045;-66
2022/04/12 05:32:42;;;;;;;3.47;2.05;;;;;;;;;;5070432;28;20463;-66
2022/04/12 05:35:09;;;;;;;2.65;1.58;;;;;;;;;;5070349;28;20148;-67
2022/04/12 05:37:41;;;;;;;4.45;1.60;;;;;;;;;;5052363;28;20060;-66
2022/04/12 05:40:09;;;;;;;4.65;1.70;;;;;;;;;;5070641;28;20052;-66
2022/04/12 05:42:35;;;;;;;3.60;1.63;;;;;;;;;;5070369;28;20074;-66
2022/04/12 05:45:01;;;;;;;3.22;1.60;;;;;;;;;;5035795;28;20048;-66
2022/04/12 05:47:27;;;;;;;2.40;1.30;;;;;;;;;;5071374;28;20045;-66
2022/04/12 05:49:54;;;;;;;2.75;1.52;;;;;;;;;;5052761;28;20043;-66
2022/04/12 05:52:20;;;;;;;2.65;1.30;;;;;;;;;;5052635;28;20070;-66
2022/04/12 05:54:46;;;;;;;2.70;1.50;;;;;;;;;;5069867;28;20412;-67
2022/04/12 05:57:31;;;;;;;2.75;1.40;;;;;;;;;;5070616;28;20151;-67
2022/04/12 05:59:57;;;;;;;3.25;1.38;;;;;;;;;;5070499;28;20168;-66
2022/04/12 06:02:23;;;;;;;3.40;1.42;;;;;;;;;;5052546;28;20168;-67
2022/04/12 06:04:49;;;;;;;3.00;1.73;;;;;;;;;;5069798;28;20068;-66
2022/04/12 06:07:15;;;;;;;2.45;1.50;;;;;;;;;;5070592;28;20037;-65
2022/04/12 06:09:41;;;;;;;5.80;1.42;;;;;;;;;;5070606;28;20483;-66
2022/04/12 06:12:07;;;;;;;2.83;1.60;;;;;;;;;;5052384;28;20052;-66
2022/04/12 06:14:33;;;;;;;2.60;1.50;;;;;;;;;;5069863;28;20048;-66
2022/04/12 06:16:59;;;;;;;2.97;1.23;;;;;;;;;;5069922;28;20052;-66
2022/04/12 06:19:25;;;;;;;2.03;1.50;;;;;;;;;;5070604;28;20040;-66
2022/04/12 06:21:51;;;;;;;4.45;1.52;;;;;;;;;;5070350;28;20136;-65
2022/04/12 06:24:18;;;;;;;3.22;1.55;;;;;;;;;;5069619;28;20127;-66
2022/04/12 06:26:44;;;;;;;3.08;1.42;;;;;;;;;;5070469;28;20152;-67
2022/04/12 06:29:11;;;;;;;5.57;1.70;;;;;;;;;;5069833;28;20084;-67
2022/04/12 06:31:37;;;;;;;4.25;1.40;;;;;;;;;;5069845;28;20174;-66
2022/04/12 06:34:03;;;;;;;5.90;1.48;;;;;;;;;;5069568;28;20432;-67
2022/04/12 06:36:29;;;;;;;7.18;1.55;;;;;;;;;;5069736;28;20490;-66
2022/04/12 06:38:57;;;;;;;8.85;1.77;;;;;;;;;;5069595;28;20052;-66
2022/04/12 06:41:24;;;;;;;4.47;1.95;;;;;;;;;;5069892;28;20086;-64
2022/04/12 06:43:50;;;;;;;3.58;1.38;;;;;;;;;;5069484;28;20547;-64
2022/04/12 06:46:16;;;;;;;4.25;1.77;;;;;;;;;;5069802;28;20044;-65
2022/04/12 06:48:42;;;;;;;2.80;1.30;;;;;;;;;;5069041;28;20049;-65
2022/04/12 06:51:08;;;;;;;3.63;1.42;;;;;;;;;;5069527;28;20132;-64
2022/04/12 06:53:34;;;;;;;3.20;2.38;;;;;;;;;;5069206;28;20603;-67
2022/04/12 06:56:00;;;;;;;3.25;1.52;;;;;;;;;;5069030;28;20051;-66
2022/04/12 06:58:26;;;;;;;4.53;1.88;;;;;;;;;;5069318;28;20487;-67
2022/04/12 07:00:53;;;;;;;2.90;1.58;;;;;;;;;;5069158;28;20491;-66
2022/04/12 07:03:20;;;;;;;4.47;1.30;;;;;;;;;;5068783;28;20055;-66
2022/04/12 07:05:49;;;;;;;2.40;1.60;;;;;;;;;;5068227;28;20049;-66
2022/04/12 07:08:15;;;;;;;3.10;1.38;;;;;;;;;;5068933;28;20132;-66
2022/04/12 07:10:42;;;;;;;5.55;1.55;;;;;;;;;;5069713;28;20404;-66
2022/04/12 07:13:09;;;;;;;5.07;1.50;;;;;;;;;;5069066;28;20060;-66
2022/04/12 07:15:35;;;;;;;3.45;1.60;;;;;;;;;;5069215;28;20151;-66
2022/04/12 07:18:01;;;;;;;5.15;1.50;;;;;;;;;;5068380;28;20040;-66
2022/04/12 07:20:27;;;;;;;2.97;1.60;;;;;;;;;;5068908;28;20409;-66
2022/04/12 07:22:53;;;;;;;2.38;1.38;;;;;;;;;;5068193;28;20099;-66
2022/04/12 07:25:19;;;;;;;4.13;1.40;;;;;;;;;;5069140;28;20152;-65
2022/04/12 07:27:45;;;;;;;2.85;1.48;;;;;;;;;;5068221;28;20052;-65
2022/04/12 07:30:12;;;;;;;2.25;1.30;;;;;;;;;;5068714;28;20542;-65
2022/04/12 07:32:38;;;;;;;3.15;1.67;;;;;;;;;;5068284;28;20044;-65
2022/04/12 07:35:05;;;;;;;2.95;1.60;;;;;;;;;;5049692;28;20056;-65
2022/04/12 07:37:31;;;;;;;3.03;1.42;;;;;;;;;;5050185;28;20048;-65
2022/04/12 07:39:58;;;;;;;5.68;1.38;;;;;;;;;;5067997;28;20418;-65
2022/04/12 07:42:24;;;;;;;2.75;1.35;;;;;;;;;;5068550;28;20434;-65
2022/04/12 07:44:51;;;;;;;3.45;1.80;;;;;;;;;;5067710;28;20443;-66
2022/04/12 07:47:17;;;;;;;4.00;1.38;;;;;;;;;;5068549;28;20045;-65
2022/04/12 07:49:43;;;;;;;6.38;2.17;;;;;;;;;;5033665;28;20510;-67
2022/04/12 07:52:09;;;;;;;8.00;1.92;;;;;;;;;;5068070;28;20047;-67
2022/04/12 07:54:35;;;;;;;5.65;1.50;;;;;;;;;;5068456;28;20040;-68
2022/04/12 07:57:01;;;;;;;2.90;1.45;;;;;;;;;;5067926;28;20052;-67
2022/04/12 07:59:27;;;;;;;6.78;1.70;;;;;;;;;;5068750;28;20336;-68
2022/04/12 08:01:53;;;;;;;2.90;1.27;;;;;;;;;;5050363;28;20525;-68
2022/04/12 08:04:19;;;;;;;4.03;1.30;;;;;;;;;;5067427;28;21200;-68
2022/04/12 08:06:46;;;;;;;3.05;1.15;;;;;;;;;;5068271;28;20401;-66
2022/04/12 08:09:12;;;;;;;3.90;2.00;;;;;;;;;;5049764;28;20048;-66
2022/04/12 08:11:38;;;;;;;2.90;1.35;;;;;;;;;;5068021;28;20055;-66
2022/04/12 08:14:04;;;;;;;4.43;1.30;;;;;;;;;;5067457;28;20051;-67
2022/04/12 08:16:30;;;;;;;4.53;1.35;;;;;;;;;;5067984;28;20040;-67
2022/04/12 08:18:56;;;;;;;3.28;1.30;;;;;;;;;;5066929;28;20075;-67
2022/04/12 08:21:31;;;;;;;2.63;1.35;;;;;;;;;;5066303;28;20036;-68
2022/04/12 08:23:58;;;;;;;2.45;1.00;;;;;;;;;;5066347;28;20052;-66
2022/04/12 08:26:24;;;;;;;2.70;1.30;;;;;;;;;;5065846;28;20362;-67
2022/04/12 08:28:51;;;;;;;2.75;1.58;;;;;;;;;;5065480;28;20351;-67
2022/04/12 08:31:17;;;;;;;3.55;1.40;;;;;;;;;;5066176;28;20067;-66
2022/04/12 08:33:43;;;;;;;3.53;1.38;;;;;;;;;;5063967;28;20048;-67
2022/04/12 08:36:09;;;;;;;2.38;1.40;;;;;;;;;;5066157;28;20109;-67
2022/04/12 08:38:35;;;;;;;3.30;1.40;;;;;;;;;;5064720;28;20055;-67
2022/04/12 08:41:02;;;;;;;4.43;1.52;;;;;;;;;;5066985;28;20064;-67
2022/04/12 08:43:29;;;;;;;2.08;1.48;;;;;;;;;;5064389;28;20103;-66
2022/04/12 08:45:55;;;;;;;2.50;1.40;;;;;;;;;;5065161;28;20370;-67
2022/04/12 08:48:22;;;;;;;4.43;1.58;;;;;;;;;;5065922;28;20434;-66
2022/04/12 08:50:48;;;;;;;2.47;1.17;;;;;;;;;;5065384;28;20127;-67
2022/04/12 08:53:18;;;;;;;4.47;1.55;;;;;;;;;;5065540;28;20048;-67
2022/04/12 08:55:45;;;;;;;3.28;1.20;;;;;;;;;;5066300;28;20387;-67
2022/04/12 08:58:11;;;;;;;2.65;1.20;;;;;;;;;;5065469;28;20453;-66
2022/04/12 09:00:37;;;;;;;2.13;1.20;;;;;;;;;;5066251;28;20036;-65
2022/04/12 09:03:04;;;;;;;3.25;1.30;;;;;;;;;;5066044;28;20043;-67
2022/04/12 09:05:32;;;;;;;2.83;1.30;;;;;;;;;;5065076;28;20120;-66
2022/04/12 09:07:59;;;;;;;3.03;1.20;;;;;;;;;;5063907;28;20044;-67
2022/04/12 09:10:37;;;;;;;3.15;1.27;;;;;;;;;;5064388;28;20123;-67
2022/04/12 09:13:16;;;;;;;2.15;1.30;;;;;;;;;;5047940;28;20052;-66
2022/04/12 09:15:43;;;;;;;1.90;1.20;;;;;;;;;;5064474;28;20407;-67
2022/04/12 09:18:10;;;;;;;2.22;1.25;;;;;;;;;;5065603;28;20437;-67
2022/04/12 09:20:36;;;;;;;3.63;1.45;;;;;;;;;;5065665;28;20717;-67
2022/04/12 09:23:03;;;;;;;2.38;1.42;;;;;;;;;;5065792;28;20052;-67
2022/04/12 09:25:29;;;;;;;3.47;1.40;;;;;;;;;;5063920;28;20445;-67
2022/04/12 09:27:55;;;;;;;3.60;1.45;;;;;;;;;;5031065;28;20099;-66
2022/04/12 09:30:22;;;;;;;2.67;1.30;;;;;;;;;;5069052;28;20055;-66
2022/04/12 09:32:49;;;;;;;2.42;1.90;;;;;;;;;;5069209;28;20040;-66
2022/04/12 09:35:15;;;;;;;2.83;1.30;;;;;;;;;;5067567;28;20175;-67
2022/04/12 09:37:42;;;;;;;2.00;1.30;;;;;;;;;;5068331;28;20502;-67
2022/04/12 09:40:13;;;;;;;2.80;1.20;;;;;;;;;;5066647;28;20743;-67
2022/04/12 09:42:39;;;;;;;3.47;1.42;;;;;;;;;;5069515;28;20082;-67
2022/04/12 09:45:06;;;;;;;3.17;1.63;;;;;;;;;;5068276;28;20045;-67
2022/04/12 09:47:32;;;;;;;3.58;1.60;;;;;;;;;;5068919;28;20075;-66
2022/04/12 09:50:00;;;;;;;5.05;2.00;;;;;;;;;;5041492;28;20237;-68
2022/04/12 09:52:26;;;;;;;4.65;1.50;;;;;;;;;;5040814;28;20043;-66
2022/04/12 09:54:52;;;;;;;2.38;1.73;;;;;;;;;;5049745;28;20089;-67
2022/04/12 09:57:18;;;;;;;3.10;1.52;;;;;;;;;;5048930;28;20495;-67
2022/04/12 09:59:45;;;;;;;3.00;1.77;;;;;;;;;;5048734;28;20049;-67
2022/04/12 10:02:11;;;;;;;3.92;1.70;;;;;;;;;;5048727;28;20487;-66
2022/04/12 10:04:38;;;;;;;2.97;1.60;;;;;;;;;;5049190;28;20037;-67
2022/04/12 10:07:05;;;;;;;3.17;1.48;;;;;;;;;;5048184;28;20444;-67
2022/04/12 10:09:34;;;;;;;6.05;1.75;;;;;;;;;;5048364;28;20049;-67
2022/04/12 10:12:00;;;;;;;5.60;2.08;;;;;;;;;;5048344;28;20089;-67
2022/04/12 10:14:27;;;;;;;5.60;1.90;;;;;;;;;;5048120;28;20057;-68
2022/04/12 10:16:55;;;;;;;4.20;2.25;;;;;;;;;;5045325;28;20044;-69
2022/04/12 10:19:21;;;;;;;7.32;2.30;;;;;;;;;;5048371;28;20036;-68
2022/04/12 10:21:47;;;;;;;5.30;2.17;;;;;;;;;;5046709;28;20052;-69
2022/04/12 10:24:14;;;;;;;7.60;2.58;;;;;;;;;;5047019;28;20132;-68
2022/04/12 10:26:40;;;;;;;5.63;2.17;;;;;;;;;;5048018;28;20048;-68
2022/04/12 10:29:07;;;;;;;5.35;2.30;;;;;;;;;;5047944;28;20084;-68
2022/04/12 10:31:34;;;;;;;6.25;2.53;;;;;;;;;;5047515;28;20044;-68
2022/04/12 10:34:03;;;;;;;5.32;2.40;;;;;;;;;;5046302;28;20051;-68
2022/04/12 10:36:53;;;;;;;6.30;2.35;;;;;;;;;;5047682;28;20549;-68
2022/04/12 10:39:19;;;;;;;4.82;2.28;;;;;;;;;;5038933;28;20049;-67
2022/04/12 10:41:47;;;;;;;5.35;2.42;;;;;;;;;;5046044;28;20526;-67
2022/04/12 10:44:20;;;;;;;4.22;2.30;;;;;;;;;;5047793;28;20075;-68
2022/04/12 10:46:47;;;;;;;3.65;2.05;;;;;;;;;;5046981;28;20041;-68
2022/04/12 10:49:18;;;;;;;5.13;2.33;;;;;;;;;;5046841;28;20131;-68
2022/04/12 10:51:46;;;;;;;7.47;2.70;;;;;;;;;;5047125;28;20123;-68
2022/04/12 10:54:33;;;;;;;4.43;2.72;;;;;;;;;;5043999;28;20434;-68
2022/04/12 10:57:32;;;;;;;5.85;2.53;;;;;;;;;;5035962;28;20060;-68
2022/04/12 10:59:58;;;;;;;5.73;2.23;;;;;;;;;;5013472;28;20052;-68
2022/04/12 11:02:28;;;;;;;3.97;2.13;;;;;;;;;;5047095;28;20561;-69
2022/04/12 11:04:54;;;;;;;6.47;2.08;;;;;;;;;;5046820;28;20522;-69
2022/04/12 11:07:29;;;;;;;3.58;2.08;;;;;;;;;;5047547;28;20436;-67
2022/04/12 11:10:05;;;;;;;5.85;2.70;;;;;;;;;;5044327;28;20107;-68
2022/04/12 11:12:39;;;;;;;4.05;2.22;;;;;;;;;;5047316;28;20048;-67
2022/04/12 11:15:24;;;;;;;4.38;2.17;;;;;;;;;;5047179;28;20040;-67
2022/04/12 11:18:04;;;;;;;4.88;2.45;;;;;;;;;;5045380;28;20037;-68
2022/04/12 11:20:31;;;;;;;5.32;2.53;;;;;;;;;;5044967;28;20045;-68
2022/04/12 11:22:59;;;;;;;6.05;2.20;;;;;;;;;;5041136;28;20060;-68
2022/04/12 11:25:28;;;;;;;4.20;2.20;;;;;;;;;;5078609;28;20063;-68
2022/04/12 11:27:54;;;;;;;;;;;;;;;;;;5047614;28;20045;-67
2022/04/12 11:30:20;;;;;;;6.32;2.10;;;;;;;;;;5046592;28;20373;-68
2022/04/12 11:32:46;;;;;;;5.90;2.40;;;;;;;;;;5046164;28;20041;-67
2022/04/12 11:35:12;;;;;;;2.95;1.77;;;;;;;;;;5046275;28;20114;-67
2022/04/12 11:37:39;;;;;;;5.30;1.88;;;;;;;;;;5047203;28;20075;-67
2022/04/12 11:40:06;;;;;;;3.25;1.83;;;;;;;;;;5046065;28;20071;-68
2022/04/12 11:42:32;;;;;;;3.25;2.10;;;;;;;;;;5046191;28;20045;-67
2022/04/12 11:44:58;;;;;;;4.80;1.83;;;;;;;;;;5046498;28;20479;-68
2022/04/12 11:47:28;;;;;;;4.28;1.92;;;;;;;;;;5046715;28;20407;-68
2022/04/12 11:49:54;;;;;;;6.47;3.33;;;;;;;;;;5046227;28;20049;-68
2022/04/12 11:52:20;;;;;;;8.68;5.13;;;;;;;;;;5045509;28;20037;-68
2022/04/12 11:54:50;;;;;;;8.70;5.35;;;;;;;;;;5046277;28;20045;-68
2022/04/12 11:57:23;;;;;;;9.73;5.82;;;;;;;;;;5046058;28;20474;-68
2022/04/12 11:59:53;;;;;;;14.52;6.72;;;;;;;;;;5044165;28;20037;-66
2022/04/12 12:02:20;;;;;;;14.48;6.75;;;;;;;;;;5045965;28;20041;-66
2022/04/12 12:04:49;;;;;;;11.10;6.00;;;;;;;;;;5044311;28;20051;-66
2022/04/12 12:07:15;;;;;;;12.38;6.55;;;;;;;;;;5046985;28;20048;-66
2022/04/12 12:09:56;;;;;;;15.10;6.70;;;;;;;;;;5046209;28;20060;-65
2022/04/12 12:12:31;;;;;;;12.45;6.32;;;;;;;;;;5046257;28;20585;-66
2022/04/12 12:14:57;;;;;;;12.00;5.80;;;;;;;;;;5044881;28;20081;-66
2022/04/12 12:17:25;;;;;;;11.55;6.07;;;;;;;;;;5045741;28;21553;-66
2022/04/12 12:19:51;;;;;;;12.65;5.60;;;;;;;;;;5046588;28;20037;-66
2022/04/12 12:22:17;;;;;;;10.35;5.88;;;;;;;;;;5046270;28;20044;-66
2022/04/12 12:24:49;;;;;;;9.73;4.82;;;;;;;;;;5046246;28;20091;-66
2022/04/12 12:27:26;;;;;;;9.43;5.05;;;;;;;;;;5046831;28;20418;-66
2022/04/12 12:29:52;;;;;;;9.88;4.80;;;;;;;;;;5046197;28;20399;-66
2022/04/12 12:32:18;;;;;;;9.85;4.63;;;;;;;;;;5046749;28;20395;-66
2022/04/12 12:34:45;;;;;;;11.88;4.88;;;;;;;;;;5046225;28;20089;-67
2022/04/12 12:37:11;;;;;;;9.23;4.90;;;;;;;;;;5045160;28;20361;-66
2022/04/12 12:39:39;;;;;;;8.88;4.88;;;;;;;;;;5046273;28;20045;-66
2022/04/12 12:42:06;;;;;;;7.82;4.40;;;;;;;;;;5044290;28;20064;-66
2022/04/12 12:44:35;;;;;;;10.63;4.90;;;;;;;;;;5046567;28;20452;-65
2022/04/12 12:47:02;;;;;;;8.30;4.25;;;;;;;;;;5045632;28;20043;-66
2022/04/12 12:49:38;;;;;;;10.98;4.60;;;;;;;;;;5044341;28;20121;-66
2022/04/12 12:52:06;;;;;;;8.50;4.55;;;;;;;;;;5046049;28;20472;-66
2022/04/12 12:54:32;;;;;;;10.50;5.35;;;;;;;;;;5044399;28;20128;-66
2022/04/12 12:56:58;;;;;;;9.73;4.32;;;;;;;;;;5044569;28;20523;-66
2022/04/12 12:59:28;;;;;;;7.80;4.05;;;;;;;;;;5044670;28;20049;-66
2022/04/12 13:01:55;;;;;;;9.43;4.30;;;;;;;;;;5044364;28;20041;-66
2022/04/12 13:04:24;;;;;;;8.15;4.03;;;;;;;;;;5047346;28;20124;-66
2022/04/12 13:07:00;;;;;;;8.00;3.85;;;;;;;;;;5049745;28;20537;-66
2022/04/12 13:09:26;;;;;;;8.63;4.10;;;;;;;;;;5049070;28;20075;-66
2022/04/12 13:11:52;;;;;;;9.45;3.78;;;;;;;;;;5050346;28;20091;-66
2022/04/12 13:14:18;;;;;;;8.00;4.22;;;;;;;;;;5049874;28;20053;-66
2022/04/12 13:16:44;;;;;;;8.68;3.90;;;;;;;;;;5050090;28;20053;-66
2022/04/12 13:19:10;;;;;;;7.65;3.90;;;;;;;;;;5050083;28;20049;-66
2022/04/12 13:21:36;;;;;;;7.82;3.80;;;;;;;;;;5049142;28;20048;-66
2022/04/12 13:24:02;;;;;;;6.97;3.60;;;;;;;;;;5048313;28;20055;-66
2022/04/12 13:26:28;;;;;;;6.40;3.80;;;;;;;;;;5050116;28;20548;-66
2022/04/12 13:28:54;;;;;;;7.53;3.90;;;;;;;;;;5050187;28;20135;-66
2022/04/12 13:31:20;;;;;;;6.72;3.58;;;;;;;;;;5049736;28;20049;-66
2022/04/12 13:33:46;;;;;;;6.50;3.85;;;;;;;;;;5049054;28;20060;-66
2022/04/12 13:36:12;;;;;;;9.05;3.80;;;;;;;;;;5050006;28;20049;-68
2022/04/12 13:38:38;;;;;;;9.73;4.35;;;;;;;;;;5049744;28;20104;-67
2022/04/12 13:41:04;;;;;;;7.82;4.40;;;;;;;;;;5049592;28;20446;-67
2022/04/12 13:43:30;;;;;;;7.55;4.15;;;;;;;;;;5047254;28;20368;-67
2022/04/12 13:45:57;;;;;;;6.45;3.60;;;;;;;;;;5048425;28;20041;-67
2022/04/12 13:48:23;;;;;;;7.50;4.13;;;;;;;;;;5049612;28;20044;-67
2022/04/12 13:50:51;;;;;;;11.77;4.30;;;;;;;;;;5049803;28;20083;-67
2022/04/12 13:53:17;;;;;;;7.25;4.35;;;;;;;;;;5048697;28;20055;-67
2022/04/12 13:55:43;;;;;;;8.05;3.92;;;;;;;;;;5049094;28;20075;-67
2022/04/12 13:58:09;;;;;;;7.40;3.95;;;;;;;;;;5049149;28;20202;-67
2022/04/12 14:00:35;;;;;;;8.88;4.40;;;;;;;;;;5048640;28;20440;-67
2022/04/12 14:03:01;;;;;;;6.55;4.10;;;;;;;;;;5049163;28;20041;-67
2022/04/12 14:05:27;;;;;;;7.72;4.00;;;;;;;;;;5048032;28;20045;-67
2022/04/12 14:07:54;;;;;;;6.65;3.83;;;;;;;;;;5047740;28;20454;-67
2022/04/12 14:10:20;;;;;;;7.82;4.30;;;;;;;;;;5048660;28;20071;-67
2022/04/12 14:12:46;;;;;;;7.18;3.95;;;;;;;;;;5048403;28;20187;-67
2022/04/12 14:15:13;;;;;;;8.23;4.07;;;;;;;;;;5048812;28;20111;-67
2022/04/12 14:17:39;;;;;;;8.30;4.22;;;;;;;;;;5048841;28;20048;-67
2022/04/12 14:20:05;;;;;;;7.20;3.95;;;;;;;;;;5047258;28;20045;-67
2022/04/12 14:22:31;;;;;;;7.88;4.13;;;;;;;;;;5047657;28;20487;-67
2022/04/12 14:24:57;;;;;;;7.75;4.28;;;;;;;;;;5046659;28;20047;-67
2022/04/12 14:27:24;;;;;;;6.22;3.78;;;;;;;;;;5047812;28;20125;-67
2022/04/12 14:29:50;;;;;;;6.85;4.18;;;;;;;;;;5046744;28;20262;-67
2022/04/12 14:32:18;;;;;;;6.22;3.80;;;;;;;;;;5047554;28;20087;-67
2022/04/12 14:34:44;;;;;;;6.80;3.75;;;;;;;;;;5048089;28;20107;-67
2022/04/12 14:37:10;;;;;;;6.05;3.63;;;;;;;;;;5047280;28;20128;-67
2022/04/12 14:39:36;;;;;;;6.10;3.65;;;;;;;;;;5046929;28;20049;-68
2022/04/12 14:42:03;;;;;;;6.57;3.92;;;;;;;;;;5046570;28;20048;-67
2022/04/12 14:44:29;;;;;;;7.95;3.67;;;;;;;;;;5048656;28;20076;-68